Terminal Aerodrome Forecast
Issued by NWS Sioux Falls, SD

Home | Current Version | Previous Version | Graphics & Text | Print | Product List | Glossary On
Versions: 1 2 3 4 5 6 7 8 9 10 11 12 13 14 15 16 17
000
FTUS43 KFSD 161120
TAFSUX
TAF
KSUX 161120Z 1612/1712 04005KT 5SM -FZRA OVC005
     FM161800 01007KT 3SM FZRA OVC003
     FM170100 35008KT 2SM -FZRASN OVC003
     FM170500 33011KT P6SM OVC010=

USA.gov is the U.S. government's official web portal to all federal, state and local government web resources and services.